Time;durP1;ratioP1;P1;durP2;ratioP2;P2;SDS_P1;SDS_P2;PMS_P1;PMS_P2;Temp;Humidity;BMP_temperature;BMP_pressure;BME280_temperature;BME280_humidity;BME280_pressure;Samples;Min_cycle;Max_cycle;Signal;HPM_P1;HPM_P2
2021/09/12 00:02:15;;;;;;;12.10;2.95;;;;;;;15.17;84.44;101900.63;5055731;28;20028;-72
2021/09/12 00:04:40;;;;;;;14.60;3.20;;;;;;;15.19;83.78;101900.50;5053766;28;20036;-73
2021/09/12 00:07:06;;;;;;;15.60;2.90;;;;;;;15.21;83.38;101907.41;5055895;28;20029;-73
2021/09/12 00:09:31;;;;;;;12.35;3.08;;;;;;;15.19;83.76;101900.50;5055169;28;20102;-73
2021/09/12 00:11:57;;;;;;;11.80;2.67;;;;;;;15.18;83.48;101906.81;5055642;28;20032;-71
2021/09/12 00:14:22;;;;;;;13.80;3.40;;;;;;;15.11;84.01;101899.38;5055499;28;20033;-73
2021/09/12 00:16:47;;;;;;;10.48;4.03;;;;;;;15.03;84.03;101903.75;5055062;28;20129;-72
2021/09/12 00:19:13;;;;;;;13.95;3.40;;;;;;;14.95;85.21;101891.91;5055499;28;20037;-72
2021/09/12 00:21:38;;;;;;;10.32;3.08;;;;;;;14.87;85.07;101897.13;5054846;28;20384;-72
2021/09/12 00:24:04;;;;;;;14.13;3.15;;;;;;;14.78;85.23;101888.09;5055506;28;20401;-72
2021/09/12 00:26:29;;;;;;;20.77;3.63;;;;;;;14.71;86.33;101884.28;5055319;28;20033;-73
2021/09/12 00:28:55;;;;;;;17.73;3.78;;;;;;;14.64;86.67;101877.81;5054858;28;20087;-72
2021/09/12 00:31:20;;;;;;;15.75;4.15;;;;;;;14.57;87.20;101873.97;5055468;28;20065;-73
2021/09/12 00:33:45;;;;;;;12.05;3.65;;;;;;;14.51;86.98;101872.72;5054803;28;20037;-72
2021/09/12 00:36:11;;;;;;;15.55;3.65;;;;;;;14.46;87.16;101870.44;5055404;28;20181;-73
2021/09/12 00:38:36;;;;;;;12.95;3.45;;;;;;;14.39;87.33;101869.31;5053467;28;20029;-72
2021/09/12 00:41:02;;;;;;;12.90;3.60;;;;;;;14.34;87.74;101865.34;5055474;28;20047;-72
2021/09/12 00:43:27;;;;;;;18.70;4.25;;;;;;;14.29;87.77;101861.25;5055146;28;20473;-72
2021/09/12 00:45:57;;;;;;;16.63;3.90;;;;;;;14.27;88.38;101863.25;5054162;28;20029;-73
2021/09/12 00:48:23;;;;;;;16.73;4.50;;;;;;;14.24;88.36;101870.69;5055227;28;20044;-72
2021/09/12 00:50:50;;;;;;;13.13;4.13;;;;;;;14.19;88.48;101879.13;5054394;28;20025;-73
2021/09/12 00:53:16;;;;;;;11.65;3.47;;;;;;;14.15;89.04;101875.03;5054867;28;20057;-72
2021/09/12 00:55:43;;;;;;;14.32;3.80;;;;;;;14.09;89.42;101875.56;5054727;28;20033;-72
2021/09/12 00:58:13;;;;;;;20.60;4.00;;;;;;;14.05;89.18;101868.81;5055030;28;20033;-72
2021/09/12 01:00:39;;;;;;;18.65;4.10;;;;;;;14.00;90.03;101871.91;5054076;28;20141;-71
2021/09/12 01:03:04;;;;;;;16.25;4.28;;;;;;;13.97;90.67;101882.03;5053498;28;20129;-72
2021/09/12 01:05:29;;;;;;;12.15;4.10;;;;;;;13.93;89.83;101876.13;5054521;28;20485;-71
2021/09/12 01:07:55;;;;;;;13.73;4.63;;;;;;;13.90;90.69;101871.03;5054341;28;20029;-72
2021/09/12 01:10:20;;;;;;;13.23;4.85;;;;;;;13.89;90.89;101872.00;5055076;28;20041;-72
2021/09/12 01:12:46;;;;;;;13.73;4.45;;;;;;;13.86;91.33;101854.38;5054128;28;20033;-72
2021/09/12 01:15:11;;;;;;;18.55;5.57;;;;;;;13.85;91.05;101868.78;5054245;28;20055;-72
2021/09/12 01:17:37;;;;;;;21.00;5.47;;;;;;;13.85;90.71;101867.91;5054483;28;20037;-72
2021/09/12 01:20:03;;;;;;;16.05;4.90;;;;;;;13.83;90.98;101869.88;5053817;28;20071;-72
2021/09/12 01:22:29;;;;;;;17.58;5.32;;;;;;;13.82;90.37;101870.84;5054048;28;20115;-72
2021/09/12 01:24:54;;;;;;;16.38;4.80;;;;;;;13.80;90.72;101868.31;5053698;28;20121;-72
2021/09/12 01:27:20;;;;;;;15.82;5.40;;;;;;;13.77;91.08;101871.25;5052904;28;20057;-72
2021/09/12 01:29:46;;;;;;;14.90;6.20;;;;;;;13.77;90.59;101867.75;5053464;28;20056;-72
2021/09/12 01:32:11;;;;;;;12.20;5.22;;;;;;;13.74;90.58;101867.03;5054235;28;20040;-72
2021/09/12 01:34:37;;;;;;;14.13;5.57;;;;;;;13.72;90.27;101869.00;5054228;28;20456;-72
2021/09/12 01:37:02;;;;;;;12.05;5.88;;;;;;;13.70;90.31;101870.97;5053490;28;20032;-72
2021/09/12 01:39:27;;;;;;;12.05;5.50;;;;;;;13.67;89.65;101868.53;5054155;28;20450;-72
2021/09/12 01:41:53;;;;;;;13.15;5.68;;;;;;;13.65;90.01;101873.19;5053471;28;20029;-72
2021/09/12 01:44:24;;;;;;;15.80;5.50;;;;;;;13.63;90.20;101869.81;5054050;28;20432;-72
2021/09/12 01:46:50;;;;;;;20.23;5.70;;;;;;;13.58;90.12;101867.53;5053542;28;20032;-72
2021/09/12 01:49:16;;;;;;;15.27;5.60;;;;;;;13.57;89.87;101871.19;5052585;28;20442;-72
2021/09/12 01:51:42;;;;;;;13.93;5.85;;;;;;;13.53;89.84;101874.25;5053668;28;20043;-72
2021/09/12 01:54:08;;;;;;;17.98;6.53;;;;;;;13.47;90.45;101878.31;5053912;28;20040;-72
2021/09/12 01:56:33;;;;;;;23.88;6.22;;;;;;;13.43;90.19;101873.34;5053817;28;20033;-72
2021/09/12 01:58:59;;;;;;;17.00;6.38;;;;;;;13.42;89.87;101866.31;5053145;28;20504;-72
2021/09/12 02:01:24;;;;;;;11.05;5.95;;;;;;;13.39;90.34;101872.75;5053558;28;20045;-71
2021/09/12 02:03:49;;;;;;;18.25;6.50;;;;;;;13.32;90.40;101867.06;5053036;28;20124;-72
2021/09/12 02:06:15;;;;;;;16.77;6.40;;;;;;;13.27;90.95;101863.97;5052170;28;20465;-72
2021/09/12 02:08:41;;;;;;;19.73;7.38;;;;;;;13.20;90.59;101871.63;5053515;28;20070;-72
2021/09/12 02:11:06;;;;;;;26.45;7.85;;;;;;;13.15;91.33;101873.88;5052928;28;20044;-72
2021/09/12 02:13:31;;;;;;;22.17;7.35;;;;;;;13.14;91.25;101880.19;5053526;28;20044;-72
2021/09/12 02:15:57;;;;;;;19.65;7.50;;;;;;;13.10;91.25;101881.41;5052810;28;20029;-72
2021/09/12 02:18:22;;;;;;;21.73;8.10;;;;;;;13.07;91.67;101876.34;5053350;28;20428;-72
2021/09/12 02:20:48;;;;;;;21.52;8.02;;;;;;;13.04;91.97;101879.28;5052661;28;20420;-72
2021/09/12 02:23:13;;;;;;;27.45;8.10;;;;;;;13.02;91.90;101874.06;5053193;28;20025;-72
2021/09/12 02:25:38;;;;;;;17.10;7.43;;;;;;;12.98;91.79;101872.63;5053261;28;20043;-72
2021/09/12 02:28:04;;;;;;;21.13;8.98;;;;;;;12.98;92.12;101877.13;5052281;28;20037;-73
2021/09/12 02:30:30;;;;;;;26.17;9.20;;;;;;;12.96;92.29;101874.59;5052880;28;20037;-71
2021/09/12 02:32:55;;;;;;;24.02;8.82;;;;;;;12.95;92.42;101880.06;5052204;28;20033;-71
2021/09/12 02:35:21;;;;;;;26.13;9.57;;;;;;;12.95;92.43;101875.53;5053074;28;20497;-71
2021/09/12 02:37:47;;;;;;;23.23;9.07;;;;;;;12.97;92.45;101875.41;5052945;28;20032;-71
2021/09/12 02:40:12;;;;;;;27.45;10.93;;;;;;;12.96;92.45;101866.56;5052817;28;20040;-71
2021/09/12 02:42:38;;;;;;;29.15;9.50;;;;;;;12.96;92.56;101874.59;5052913;28;20024;-73
2021/09/12 02:45:06;;;;;;;30.42;10.90;;;;;;;12.96;92.68;101871.91;5051922;28;20029;-71
2021/09/12 02:47:32;;;;;;;31.67;11.05;;;;;;;12.98;92.75;101869.09;5052716;28;20033;-72
2021/09/12 02:49:57;;;;;;;26.83;10.15;;;;;;;12.98;92.52;101866.44;5052098;28;20483;-71
2021/09/12 02:52:22;;;;;;;24.98;9.75;;;;;;;13.00;92.94;101869.81;5052822;28;20036;-71
2021/09/12 02:54:48;;;;;;;25.23;11.20;;;;;;;13.03;92.72;101875.75;5052730;28;20040;-72
2021/09/12 02:57:13;;;;;;;32.30;10.82;;;;;;;13.05;93.00;101865.78;5051719;28;20033;-71
2021/09/12 02:59:38;;;;;;;33.17;10.75;;;;;;;13.13;92.86;101870.47;5051127;28;20069;-70
2021/09/12 03:02:04;;;;;;;30.05;10.90;;;;;;;13.21;93.21;101884.03;5051418;28;20086;-71
2021/09/12 03:04:29;;;;;;;25.85;11.20;;;;;;;13.28;92.70;101876.31;5052583;28;20029;-72
2021/09/12 03:06:54;;;;;;;23.13;11.15;;;;;;;13.34;92.15;101875.81;5050484;28;20114;-72
2021/09/12 03:09:20;;;;;;;22.02;10.90;;;;;;;13.42;92.30;101868.97;5052619;28;20076;-72
2021/09/12 03:11:45;;;;;;;26.35;11.43;;;;;;;13.48;92.03;101876.47;5052751;28;20029;-72
2021/09/12 03:14:11;;;;;;;29.98;11.48;;;;;;;13.54;91.61;101875.94;5051595;28;20431;-72
2021/09/12 03:16:36;;;;;;;28.80;11.27;;;;;;;13.59;91.40;101876.38;5052465;28;20056;-72
2021/09/12 03:19:02;;;;;;;30.33;12.05;;;;;;;13.60;91.13;101871.88;5051767;28;20041;-73
2021/09/12 03:21:27;;;;;;;29.40;12.52;;;;;;;13.63;91.00;101872.47;5052158;28;20104;-73
2021/09/12 03:23:52;;;;;;;23.75;10.88;;;;;;;13.64;91.40;101874.16;5051544;28;20083;-72
2021/09/12 03:26:18;;;;;;;21.33;10.48;;;;;;;13.64;90.72;101874.16;5052392;28;20359;-72
2021/09/12 03:28:43;;;;;;;25.55;10.40;;;;;;;13.63;90.96;101872.47;5051961;28;20071;-72
2021/09/12 03:31:09;;;;;;;29.13;11.93;;;;;;;13.64;90.72;101879.50;5051715;28;20062;-72
2021/09/12 03:33:34;;;;;;;23.40;11.02;;;;;;;13.64;90.81;101879.50;5052093;28;20037;-72
2021/09/12 03:36:00;;;;;;;29.25;11.45;;;;;;;13.66;90.64;101884.72;5051696;28;20439;-72
2021/09/12 03:38:25;;;;;;;32.75;12.20;;;;;;;13.66;90.69;101882.91;5052205;28;20068;-73
2021/09/12 03:40:50;;;;;;;24.65;12.35;;;;;;;13.67;90.67;101883.75;5052212;28;20595;-73
2021/09/12 03:43:16;;;;;;;36.95;12.50;;;;;;;13.69;90.88;101882.63;5051598;28;20462;-72
2021/09/12 03:45:42;;;;;;;35.08;12.57;;;;;;;13.70;90.58;101881.66;5052510;28;20037;-72
2021/09/12 03:48:08;;;;;;;27.88;13.32;;;;;;;13.69;90.51;101887.97;5051562;28;20033;-72
2021/09/12 03:50:33;;;;;;;34.03;12.52;;;;;;;13.64;90.48;101881.34;5052160;28;20079;-72
2021/09/12 03:52:59;;;;;;;30.35;12.65;;;;;;;13.58;90.68;101877.38;5051527;28;20388;-73
2021/09/12 03:55:24;;;;;;;28.70;12.25;;;;;;;13.50;90.77;101879.88;5052503;28;20041;-72
2021/09/12 03:57:50;;;;;;;31.88;13.00;;;;;;;13.44;90.32;101886.59;5052181;28;20086;-72
2021/09/12 04:00:15;;;;;;;31.58;12.95;;;;;;;13.36;90.90;101881.91;5050981;28;20045;-72
2021/09/12 04:02:42;;;;;;;32.08;13.45;;;;;;;13.27;91.37;101880.00;5051960;28;20031;-73
2021/09/12 04:05:08;;;;;;;40.40;14.30;;;;;;;13.18;92.01;101886.09;5051398;28;20033;-72
2021/09/12 04:07:33;;;;;;;25.67;12.20;;;;;;;13.11;91.68;101879.63;5052040;28;20036;-72
2021/09/12 04:09:59;;;;;;;42.47;14.60;;;;;;;13.08;92.66;101885.19;5051364;28;20037;-72
2021/09/12 04:12:24;;;;;;;34.08;12.90;;;;;;;13.03;92.08;101880.25;5052045;28;20037;-73
2021/09/12 04:14:49;;;;;;;33.55;14.57;;;;;;;12.96;92.79;101876.41;5055379;28;20025;-72
2021/09/12 04:17:15;;;;;;;35.90;13.73;;;;;;;12.88;92.48;101877.03;5054969;28;20079;-72
2021/09/12 04:19:41;;;;;;;40.15;14.77;;;;;;;12.83;93.57;101873.91;5055238;28;20116;-72
2021/09/12 04:22:06;;;;;;;38.17;15.38;;;;;;;12.77;93.64;101866.41;5054982;28;20041;-73
2021/09/12 04:24:31;;;;;;;39.72;16.05;;;;;;;12.74;94.05;101877.38;5055442;28;20041;-73
2021/09/12 04:26:57;;;;;;;44.47;16.83;;;;;;;12.73;94.33;101875.66;5055489;28;20036;-73
2021/09/12 04:29:22;;;;;;;43.38;15.63;;;;;;;12.65;94.30;101871.81;5054809;28;20040;-72
2021/09/12 04:31:48;;;;;;;32.53;14.43;;;;;;;12.60;94.44;101865.13;5055360;28;20561;-73
2021/09/12 04:34:14;;;;;;;46.83;17.83;;;;;;;12.56;94.52;101864.56;5055078;28;20039;-72
2021/09/12 04:36:40;;;;;;;35.58;16.33;;;;;;;12.51;95.00;101859.59;5055352;28;20033;-73
2021/09/12 04:39:05;;;;;;;43.83;16.75;;;;;;;12.47;95.19;101860.00;5054466;28;20064;-73
2021/09/12 04:41:30;;;;;;;53.35;18.98;;;;;;;12.45;95.70;101857.44;5055315;28;20466;-72
2021/09/12 04:43:56;;;;;;;54.47;19.05;;;;;;;12.43;95.82;101858.53;5055114;28;20454;-73
2021/09/12 04:46:21;;;;;;;41.60;17.73;;;;;;;12.44;95.89;101873.59;5054324;28;20090;-73
2021/09/12 04:48:47;;;;;;;54.55;19.25;;;;;;;12.43;96.03;101867.38;5054875;28;20024;-73
2021/09/12 04:51:12;;;;;;;54.00;19.30;;;;;;;12.43;95.71;101869.22;5054074;28;20068;-72
2021/09/12 04:53:37;;;;;;;80.90;24.55;;;;;;;12.47;96.24;101873.34;5054968;28;20033;-72
2021/09/12 04:56:03;;;;;;;58.33;22.52;;;;;;;12.48;96.56;101865.19;5054412;28;20036;-72
2021/09/12 04:58:28;;;;;;;69.43;20.95;;;;;;;12.49;96.84;101871.38;5055205;28;20037;-73
2021/09/12 05:00:53;;;;;;;62.97;21.67;;;;;;;12.49;96.51;101866.03;5054818;28;20053;-72
2021/09/12 05:03:19;;;;;;;51.50;19.85;;;;;;;12.47;97.11;101868.00;5054101;28;20037;-72
2021/09/12 05:05:44;;;;;;;65.55;21.90;;;;;;;12.45;97.05;101867.25;5054628;28;20029;-72
2021/09/12 05:08:10;;;;;;;58.35;20.58;;;;;;;12.48;96.99;101872.34;5054116;28;20454;-73
2021/09/12 05:10:35;;;;;;;66.55;22.08;;;;;;;12.46;96.92;101872.47;5054621;28;20061;-73
2021/09/12 05:13:00;;;;;;;66.43;21.73;;;;;;;12.47;97.20;101876.84;5054375;28;20037;-72
2021/09/12 05:15:26;;;;;;;76.68;23.25;;;;;;;12.51;97.49;101880.13;5053964;28;20033;-73
2021/09/12 05:17:51;;;;;;;81.30;25.17;;;;;;;12.52;97.59;101876.47;5054374;28;20029;-72
2021/09/12 05:20:17;;;;;;;78.28;24.42;;;;;;;12.54;98.03;101877.19;5054075;28;20029;-73
2021/09/12 05:22:42;;;;;;;71.95;23.42;;;;;;;12.57;98.03;101886.75;5054470;28;20474;-72
2021/09/12 05:25:08;;;;;;;76.78;25.48;;;;;;;12.62;98.45;101873.88;5053237;28;20112;-73
2021/09/12 05:27:34;;;;;;;83.35;24.15;;;;;;;12.70;98.44;101872.28;5054511;28;20059;-72
2021/09/12 05:29:59;;;;;;;76.38;25.58;;;;;;;12.79;98.38;101875.13;5054650;28;20125;-72
2021/09/12 05:32:25;;;;;;;81.00;25.48;;;;;;;12.87;98.33;101875.38;5053711;28;20457;-72
2021/09/12 05:34:50;;;;;;;83.97;25.25;;;;;;;12.92;98.92;101870.47;5054205;28;20033;-73
2021/09/12 05:37:15;;;;;;;75.32;24.70;;;;;;;12.98;98.68;101877.13;5053586;28;20033;-72
2021/09/12 05:39:41;;;;;;;75.05;25.40;;;;;;;13.04;98.50;101877.44;5053747;28;20033;-72
2021/09/12 05:42:07;;;;;;;66.63;24.33;;;;;;;13.10;98.44;101877.91;5054013;28;20040;-73
2021/09/12 05:44:32;;;;;;;75.53;23.55;;;;;;;13.15;98.59;101883.69;5053420;28;20504;-72
2021/09/12 05:46:58;;;;;;;69.93;24.05;;;;;;;13.22;98.31;101882.19;5054184;28;20041;-73
2021/09/12 05:49:24;;;;;;;74.45;24.13;;;;;;;13.32;98.80;101887.63;5053395;28;20033;-73
2021/09/12 05:51:50;;;;;;;60.75;22.13;;;;;;;13.38;98.53;101882.63;5053786;28;20036;-72
2021/09/12 05:54:15;;;;;;;61.95;22.92;;;;;;;13.45;98.59;101895.44;5051959;28;20029;-73
2021/09/12 05:56:41;;;;;;;60.25;21.80;;;;;;;13.51;98.35;101892.25;5053701;28;20040;-72
2021/09/12 05:59:06;;;;;;;52.35;21.40;;;;;;;13.61;98.20;101889.63;5053376;28;20389;-72
2021/09/12 06:01:31;;;;;;;55.00;21.40;;;;;;;13.66;97.66;101890.94;5051265;28;20443;-72
2021/09/12 06:03:57;;;;;;;50.75;20.45;;;;;;;13.73;97.34;101891.22;5053412;28;20035;-72
2021/09/12 06:06:22;;;;;;;44.67;20.17;;;;;;;13.83;96.79;101885.94;5052929;28;20037;-73
2021/09/12 06:08:47;;;;;;;46.92;20.48;;;;;;;13.88;96.82;101892.56;5053581;28;20116;-72
2021/09/12 06:11:13;;;;;;;48.92;19.65;;;;;;;13.94;95.99;101896.50;5052904;28;20037;-72
2021/09/12 06:13:38;;;;;;;43.88;18.40;;;;;;;14.04;96.00;101899.22;5053500;28;20040;-72
2021/09/12 06:16:06;;;;;;;43.75;18.92;;;;;;;14.11;95.30;101890.53;5053260;28;20037;-72
2021/09/12 06:18:32;;;;;;;34.05;17.92;;;;;;;14.19;94.63;101900.53;5052733;28;20032;-72
2021/09/12 06:20:57;;;;;;;39.95;17.90;;;;;;;14.26;94.58;101900.84;5053240;28;20056;-72
2021/09/12 06:23:23;;;;;;;41.65;17.65;;;;;;;14.34;94.15;101898.31;5052413;28;20071;-72
2021/09/12 06:25:49;;;;;;;46.90;18.00;;;;;;;14.40;93.37;101888.88;5052988;28;20032;-72
2021/09/12 06:28:14;;;;;;;45.47;16.73;;;;;;;14.51;93.74;101895.94;5052210;28;20037;-72
2021/09/12 06:30:40;;;;;;;38.83;17.13;;;;;;;14.62;93.58;101899.38;5053127;28;20078;-72
2021/09/12 06:33:05;;;;;;;36.08;16.10;;;;;;;14.67;92.24;101903.47;5053159;28;20108;-72
2021/09/12 06:35:30;;;;;;;40.00;17.35;;;;;;;14.74;92.29;101908.13;5052189;28;20035;-73
2021/09/12 06:37:56;;;;;;;40.67;16.65;;;;;;;14.79;91.34;101902.34;5052140;28;20041;-72
2021/09/12 06:40:23;;;;;;;37.08;16.52;;;;;;;14.89;91.52;101900.50;5052476;28;20213;-73
2021/09/12 06:42:49;;;;;;;41.00;15.95;;;;;;;14.96;90.90;101901.63;5052916;28;20080;-72
2021/09/12 06:45:15;;;;;;;44.67;17.00;;;;;;;15.08;90.67;101896.13;5051955;28;20041;-72
2021/09/12 06:47:40;;;;;;;39.30;17.17;;;;;;;15.18;89.95;101907.66;5052580;28;20393;-72
2021/09/12 06:50:06;;;;;;;45.35;16.65;;;;;;;15.30;89.29;101909.22;5052771;28;20037;-73
2021/09/12 06:52:32;;;;;;;42.95;15.60;;;;;;;15.39;88.85;101907.50;5052103;28;20037;-73
2021/09/12 06:54:57;;;;;;;43.55;17.38;;;;;;;15.49;89.03;101912.84;5052584;28;20098;-72
2021/09/12 06:57:23;;;;;;;40.85;16.55;;;;;;;15.55;88.25;101911.41;5051823;28;20037;-73
2021/09/12 06:59:48;;;;;;;39.63;17.25;;;;;;;15.59;87.60;101910.13;5052446;28;20032;-72
2021/09/12 07:02:13;;;;;;;36.10;16.45;;;;;;;15.64;87.26;101913.22;5052698;28;20064;-72
2021/09/12 07:04:39;;;;;;;37.25;16.73;;;;;;;15.67;87.86;101916.47;5051663;28;20047;-73
2021/09/12 07:07:04;;;;;;;51.88;19.27;;;;;;;15.69;87.14;101921.69;5052821;28;20033;-73
2021/09/12 07:09:30;;;;;;;45.67;18.08;;;;;;;15.77;87.68;101918.25;5051684;28;20401;-73
2021/09/12 07:11:55;;;;;;;38.53;18.20;;;;;;;15.86;87.55;101920.09;5052594;28;20041;-73
2021/09/12 07:14:21;;;;;;;46.05;17.73;;;;;;;15.92;87.54;101915.97;5050718;28;20473;-73
2021/09/12 07:16:46;;;;;;;47.65;19.55;;;;;;;15.95;86.20;101913.00;5052375;28;20508;-73
2021/09/12 07:19:11;;;;;;;40.35;18.13;;;;;;;15.94;87.04;101922.03;5052328;28;20091;-73
2021/09/12 07:21:37;;;;;;;46.05;18.58;;;;;;;15.95;86.92;101923.72;5050513;28;20474;-72
2021/09/12 07:24:03;;;;;;;35.13;17.95;;;;;;;16.00;86.96;101918.75;5052457;28;20096;-73
2021/09/12 07:26:28;;;;;;;46.30;18.50;;;;;;;16.03;87.20;101918.44;5051280;28;20504;-73
2021/09/12 07:28:54;;;;;;;39.10;17.33;;;;;;;16.13;86.92;101921.94;5052380;28;20037;-73
2021/09/12 07:31:19;;;;;;;49.58;19.55;;;;;;;16.23;86.47;101927.25;5051759;28;20124;-74
2021/09/12 07:33:44;;;;;;;44.70;18.70;;;;;;;16.31;86.41;101931.88;5050699;28;20032;-73
2021/09/12 07:36:10;;;;;;;50.70;20.05;;;;;;;16.38;86.00;101933.81;5050951;28;20401;-73
2021/09/12 07:38:35;;;;;;;49.10;19.90;;;;;;;16.47;86.26;101923.16;5051605;28;20025;-73
2021/09/12 07:41:00;;;;;;;44.60;19.00;;;;;;;16.60;85.77;101933.53;5051890;28;20026;-73
2021/09/12 07:43:26;;;;;;;50.85;19.85;;;;;;;16.79;84.20;101932.53;5051638;28;20029;-73
2021/09/12 07:45:51;;;;;;;45.30;18.83;;;;;;;16.98;83.69;101936.97;5050950;28;20508;-72
2021/09/12 07:48:17;;;;;;;45.45;19.92;;;;;;;17.22;83.54;101936.31;5052320;28;20033;-72
2021/09/12 07:50:43;;;;;;;43.05;18.90;;;;;;;17.35;82.07;101927.84;5055574;28;20040;-73
2021/09/12 07:53:08;;;;;;;37.53;18.77;;;;;;;17.50;82.67;101944.25;5056022;28;20033;-73
2021/09/12 07:55:34;;;;;;;45.25;17.65;;;;;;;17.70;81.97;101948.41;5055839;28;20040;-72
2021/09/12 07:57:59;;;;;;;42.13;19.23;;;;;;;17.89;80.03;101947.38;5055580;28;20083;-73
2021/09/12 08:00:25;;;;;;;48.10;17.55;;;;;;;18.11;79.95;101951.34;5055017;28;20167;-73
2021/09/12 08:02:50;;;;;;;40.88;19.15;;;;;;;18.18;78.64;101954.22;5055692;28;20388;-73
2021/09/12 08:05:15;;;;;;;42.90;19.08;;;;;;;18.08;78.91;101959.75;5055814;28;20036;-72
2021/09/12 08:07:40;;;;;;;43.97;18.70;;;;;;;18.01;79.96;101960.56;5055312;28;20527;-73
2021/09/12 08:10:06;;;;;;;45.60;17.63;;;;;;;18.13;79.32;101962.78;5055752;28;20095;-73
2021/09/12 08:12:32;;;;;;;38.95;17.95;;;;;;;18.45;77.90;101963.06;5054908;28;20037;-73
2021/09/12 08:14:57;;;;;;;32.17;16.83;;;;;;;18.87;77.36;101962.19;5055515;28;20056;-73
2021/09/12 08:17:23;;;;;;;35.53;16.10;;;;;;;19.37;75.37;101949.53;5055249;28;20064;-72
2021/09/12 08:19:48;;;;;;;36.60;15.48;;;;;;;19.86;73.73;101954.03;5055265;28;20033;-73
2021/09/12 08:22:13;;;;;;;36.78;17.08;;;;;;;19.90;71.94;101958.91;5055635;28;20059;-73
2021/09/12 08:24:39;;;;;;;29.45;15.80;;;;;;;19.80;72.67;101963.66;5054817;28;20032;-73
2021/09/12 08:27:04;;;;;;;34.70;17.58;;;;;;;19.58;72.69;101954.41;5055307;28;20041;-73
2021/09/12 08:29:30;;;;;;;33.13;16.35;;;;;;;19.29;75.27;101963.88;5055043;28;20461;-72
2021/09/12 08:31:55;;;;;;;30.95;15.70;;;;;;;19.08;76.27;101968.94;5055616;28;20089;-72
2021/09/12 08:34:23;;;;;;;38.15;16.13;;;;;;;18.90;76.72;101975.34;5054980;28;20519;-72
2021/09/12 08:36:49;;;;;;;30.45;15.10;;;;;;;18.76;76.59;101966.00;5054556;28;20114;-73
2021/09/12 08:39:14;;;;;;;38.75;16.25;;;;;;;18.66;76.94;101973.38;5055063;28;20120;-72
2021/09/12 08:41:39;;;;;;;40.83;16.95;;;;;;;18.50;77.31;101969.66;5054566;28;20033;-73
2021/09/12 08:44:06;;;;;;;32.25;16.23;;;;;;;18.45;78.16;101977.41;5054822;28;20029;-73
2021/09/12 08:46:31;;;;;;;28.55;15.82;;;;;;;18.66;76.66;101971.56;5054442;28;20440;-73
2021/09/12 08:48:57;;;;;;;33.60;15.75;;;;;;;19.00;76.25;101973.34;5055057;28;20040;-73
2021/09/12 08:51:24;;;;;;;31.08;15.90;;;;;;;19.27;74.73;101973.16;5054861;28;20044;-73
2021/09/12 08:53:50;;;;;;;29.55;13.73;;;;;;;19.66;74.12;101977.81;5054266;28;20037;-73
2021/09/12 08:56:15;;;;;;;31.40;13.40;;;;;;;20.26;71.49;101974.66;5055098;28;20033;-73
2021/09/12 08:58:40;;;;;;;27.58;11.25;;;;;;;21.96;66.65;101976.41;5053858;28;20060;-73
2021/09/12 09:01:06;;;;;;;27.45;11.88;;;;;;;23.58;60.69;101979.81;5053811;28;20382;-73
2021/09/12 09:03:34;;;;;;;25.20;11.50;;;;;;;23.92;58.57;101984.44;5053168;28;20064;-73
2021/09/12 09:06:13;;;;;;;23.50;11.15;;;;;;;24.71;57.38;101985.00;5054378;28;20385;-73
2021/09/12 09:08:59;;;;;;;17.83;8.68;;;;;;;26.13;51.85;101982.03;5054101;28;20037;-73
2021/09/12 09:11:37;;;;;;;23.73;8.85;;;;;;;26.93;48.85;101986.22;5054789;28;20033;-73
2021/09/12 09:14:14;;;;;;;17.55;8.18;;;;;;;26.90;48.77;101982.06;5054674;28;20043;-73
2021/09/12 09:16:39;;;;;;;29.23;9.20;;;;;;;27.26;47.59;101976.97;5053935;28;20029;-73
2021/09/12 09:19:06;;;;;;;18.08;8.68;;;;;;;25.74;50.13;101986.50;5054428;28;20041;-73
2021/09/12 09:21:38;;;;;;;13.73;5.35;;;;;;;24.20;54.05;101982.69;5053662;28;20063;-74
2021/09/12 09:24:25;;;;;;;8.30;5.15;;;;;;;22.65;57.63;101990.63;5054357;28;20116;-73
2021/09/12 09:26:55;;;;;;;9.65;4.63;;;;;;;21.62;61.21;101982.34;5053543;28;20346;-73
2021/09/12 09:29:23;;;;;;;10.80;4.50;;;;;;;21.10;64.10;101981.25;5054227;28;20116;-73
2021/09/12 09:32:03;;;;;;;6.03;4.32;;;;;;;20.68;65.95;101986.13;5053605;28;20028;-73
2021/09/12 09:34:29;;;;;;;8.45;4.20;;;;;;;20.65;67.15;101985.63;5054317;28;20461;-73
2021/09/12 09:37:21;;;;;;;7.05;3.67;;;;;;;20.64;66.22;101979.34;5054379;28;20037;-73
2021/09/12 09:39:55;;;;;;;4.97;3.20;;;;;;;20.74;66.15;101990.81;5053905;28;20079;-73
2021/09/12 09:42:34;;;;;;;4.30;2.97;;;;;;;21.54;64.70;101990.56;5054356;28;20174;-73
2021/09/12 09:45:07;;;;;;;10.88;2.58;;;;;;;21.59;62.61;101993.56;5055416;28;20033;-73
2021/09/12 09:47:33;;;;;;;3.53;2.45;;;;;;;21.39;64.10;101996.75;5055277;28;20033;-73
2021/09/12 09:50:04;;;;;;;5.85;2.30;;;;;;;20.93;65.62;101997.63;5054201;28;20040;-73
2021/09/12 09:52:34;;;;;;;4.10;2.40;;;;;;;20.60;66.66;101996.94;5053805;28;20029;-73
2021/09/12 09:55:00;;;;;;;6.05;2.53;;;;;;;20.44;67.46;101996.00;5053894;28;20033;-74
2021/09/12 09:57:26;;;;;;;3.45;1.92;;;;;;;20.36;68.38;102006.88;5053601;28;20036;-74
2021/09/12 09:59:52;;;;;;;3.67;2.10;;;;;;;20.42;67.71;101992.66;5052639;28;20037;-73
2021/09/12 10:02:19;;;;;;;7.25;2.00;;;;;;;20.48;68.26;101998.34;5053691;28;20458;-73
2021/09/12 10:04:44;;;;;;;3.25;1.90;;;;;;;20.54;65.73;101998.50;5053042;28;20040;-73
2021/09/12 10:07:11;;;;;;;5.95;2.15;;;;;;;20.64;64.99;101995.56;5053286;28;20029;-73
2021/09/12 10:09:37;;;;;;;4.38;1.75;;;;;;;20.82;65.69;101998.03;5052735;28;20122;-73
2021/09/12 10:12:07;;;;;;;5.90;1.60;;;;;;;20.94;63.14;101999.31;5053097;28;20041;-72
2021/09/12 10:14:50;;;;;;;3.80;1.30;;;;;;;21.08;64.08;102005.78;5053527;28;20037;-72
2021/09/12 10:17:21;;;;;;;3.28;1.30;;;;;;;21.34;62.59;102006.44;5053134;28;20025;-72
2021/09/12 10:19:47;;;;;;;3.33;1.55;;;;;;;21.55;61.71;102013.91;5052543;28;20116;-72
2021/09/12 10:22:18;;;;;;;3.92;1.50;;;;;;;21.54;61.97;101999.53;5053280;28;20086;-72
2021/09/12 10:25:02;;;;;;;5.75;1.83;;;;;;;21.82;62.62;102004.31;5051443;28;20028;-73
2021/09/12 10:27:35;;;;;;;2.58;1.23;;;;;;;22.24;59.50;102002.81;5053272;28;20048;-73
2021/09/12 10:30:19;;;;;;;2.20;1.10;;;;;;;22.56;59.07;102000.75;5052596;28;20056;-73
2021/09/12 10:32:45;;;;;;;2.88;1.20;;;;;;;23.15;57.36;102010.56;5052847;28;20032;-73
2021/09/12 10:35:26;;;;;;;5.25;1.80;;;;;;;24.16;54.55;102011.34;5053029;28;20029;-72
2021/09/12 10:37:57;;;;;;;2.60;1.30;;;;;;;25.03;51.89;102006.19;5052423;28;20036;-72
2021/09/12 10:40:23;;;;;;;4.70;1.65;;;;;;;25.28;49.02;102010.00;5053066;28;20028;-73
2021/09/12 10:42:49;;;;;;;2.13;1.33;;;;;;;25.44;47.49;101997.88;5052179;28;20078;-73
2021/09/12 10:45:25;;;;;;;2.63;1.08;;;;;;;25.12;47.67;102002.22;5052854;28;20119;-75
2021/09/12 10:48:12;;;;;;;2.75;1.20;;;;;;;24.50;48.47;102002.28;5052405;28;20048;-72
2021/09/12 10:50:44;;;;;;;3.70;1.08;;;;;;;25.08;48.99;101998.22;5052775;28;20159;-72
2021/09/12 10:53:10;;;;;;;3.53;1.10;;;;;;;25.43;47.74;101993.47;5052775;28;20029;-73
2021/09/12 10:56:02;;;;;;;2.65;1.30;;;;;;;25.30;48.26;101997.06;5052378;28;20035;-73
2021/09/12 10:58:29;;;;;;;4.85;1.10;;;;;;;25.16;48.09;102004.31;5052593;28;20116;-73
2021/09/12 11:00:56;;;;;;;4.25;1.40;;;;;;;25.44;47.57;101999.75;5051471;28;20045;-73
2021/09/12 11:03:23;;;;;;;6.80;1.13;;;;;;;25.52;47.71;101996.81;5052638;28;20057;-73
2021/09/12 11:05:48;;;;;;;6.40;1.40;;;;;;;26.33;44.85;102001.03;5051732;28;20484;-73
2021/09/12 11:08:13;;;;;;;3.75;1.23;;;;;;;26.41;42.71;102005.41;5052617;28;20029;-73
2021/09/12 11:10:40;;;;;;;2.78;1.30;;;;;;;26.26;43.58;102002.97;5052664;28;20044;-73
2021/09/12 11:13:07;;;;;;;3.97;1.23;;;;;;;25.91;45.24;102005.97;5051914;28;20040;-73